Time;durP1;ratioP1;P1;durP2;ratioP2;P2;SDS_P1;SDS_P2;PMS_P1;PMS_P2;Temp;Humidity;BMP_temperature;BMP_pressure;BME280_temperature;BME280_humidity;BME280_pressure;Samples;Min_cycle;Max_cycle;Signal;HPM_P1;HPM_P2
2023/11/21 00:02:27;;;;;;;14.80;10.80;;;11.00;99.90;;;;;;4948997;29;20228;-78
2023/11/21 00:04:54;;;;;;;11.65;9.70;;;10.90;99.90;;;;;;4944536;29;20670;-78
2023/11/21 00:07:21;;;;;;;10.45;8.90;;;10.90;99.90;;;;;;4958232;29;20232;-77
2023/11/21 00:09:49;;;;;;;12.52;11.23;;;10.90;99.90;;;;;;4952270;29;20574;-78
2023/11/21 00:12:15;;;;;;;10.90;9.45;;;10.90;99.90;;;;;;4941057;29;20232;-78
2023/11/21 00:14:46;;;;;;;13.65;10.93;;;10.80;99.90;;;;;;4940366;29;20235;-84
2023/11/21 00:17:13;;;;;;;14.20;12.43;;;10.70;99.90;;;;;;4938663;29;20277;-84
2023/11/21 00:19:40;;;;;;;18.35;12.48;;;10.60;99.90;;;;;;4943712;28;20240;-85
2023/11/21 00:22:07;;;;;;;16.55;11.93;;;10.50;99.90;;;;;;4958517;29;20296;-84
2023/11/21 00:24:34;;;;;;;18.17;12.90;;;10.40;99.90;;;;;;4956583;28;20319;-78
2023/11/21 00:27:01;;;;;;;22.60;15.43;;;10.40;99.90;;;;;;4956827;29;20231;-78
2023/11/21 00:29:28;;;;;;;20.25;14.80;;;10.50;99.90;;;;;;4957430;28;20578;-78
2023/11/21 00:31:56;;;;;;;18.23;14.60;;;10.40;99.90;;;;;;4957792;29;20311;-78
2023/11/21 00:34:23;;;;;;;24.33;15.57;;;10.40;99.90;;;;;;4957471;29;20270;-85
2023/11/21 00:36:50;;;;;;;22.42;16.90;;;10.30;99.90;;;;;;4944063;29;20220;-85
2023/11/21 00:39:16;;;;;;;19.85;15.52;;;10.30;99.90;;;;;;4948285;29;20226;-85
2023/11/21 00:41:44;;;;;;;26.17;17.20;;;10.20;99.90;;;;;;4951693;29;20616;-85
2023/11/21 00:44:11;;;;;;;25.73;18.10;;;10.20;99.90;;;;;;4954902;29;21049;-84
2023/11/21 00:46:38;;;;;;;29.00;16.50;;;10.20;99.90;;;;;;4952208;29;20328;-85
2023/11/21 00:49:07;;;;;;;30.13;17.48;;;10.10;99.90;;;;;;4955406;29;20303;-85
2023/11/21 00:51:34;;;;;;;29.63;18.98;;;10.10;99.90;;;;;;4956894;29;20232;-84
2023/11/21 00:54:02;;;;;;;26.80;17.83;;;10.10;99.90;;;;;;4957861;28;20236;-85
2023/11/21 00:56:29;;;;;;;34.28;20.27;;;10.00;99.90;;;;;;4957032;29;20239;-79
2023/11/21 00:58:56;;;;;;;37.95;21.48;;;10.00;99.90;;;;;;4951689;29;20244;-79
2023/11/21 01:01:24;;;;;;;34.22;19.05;;;10.00;99.90;;;;;;4947711;29;20232;-79
2023/11/21 01:03:52;;;;;;;35.00;22.30;;;9.90;99.90;;;;;;4956596;29;20220;-79
2023/11/21 01:06:20;;;;;;;36.38;23.15;;;10.00;99.90;;;;;;4952920;29;20236;-85
2023/11/21 01:08:47;;;;;;;33.00;22.05;;;10.00;99.90;;;;;;4938389;29;20225;-84
2023/11/21 01:11:15;;;;;;;38.17;24.35;;;10.00;99.90;;;;;;4938383;29;20228;-78
2023/11/21 01:13:44;;;;;;;35.90;23.02;;;10.00;99.90;;;;;;4939272;29;20567;-79
2023/11/21 01:16:17;;;;;;;36.13;24.13;;;10.00;99.90;;;;;;4937087;29;20574;-84
2023/11/21 01:18:44;;;;;;;44.47;24.17;;;10.00;99.90;;;;;;4936526;29;20283;-84
2023/11/21 01:21:11;;;;;;;39.03;21.92;;;10.00;99.90;;;;;;4949641;29;20232;-84
2023/11/21 01:23:40;;;;;;;38.25;22.85;;;10.00;99.90;;;;;;4948967;29;20616;-83
2023/11/21 01:26:09;;;;;;;34.38;21.48;;;9.90;99.90;;;;;;4936765;29;20228;-84
2023/11/21 01:28:36;;;;;;;38.42;22.10;;;9.90;99.90;;;;;;4941026;28;20235;-84
2023/11/21 01:31:03;;;;;;;35.25;20.35;;;9.90;99.90;;;;;;4956695;29;20226;-84
2023/11/21 01:33:30;;;;;;;36.97;21.58;;;9.80;99.90;;;;;;4944885;29;20231;-78
2023/11/21 01:35:57;;;;;;;30.98;20.33;;;9.80;99.90;;;;;;4947703;28;20263;-77
2023/11/21 01:38:24;;;;;;;32.40;22.42;;;9.80;99.90;;;;;;4956360;28;20674;-84
2023/11/21 01:40:55;;;;;;;32.25;19.40;;;9.80;99.90;;;;;;4940312;29;20256;-84
2023/11/21 01:43:22;;;;;;;31.42;17.85;;;9.80;99.90;;;;;;4951064;29;20236;-82
2023/11/21 01:45:49;;;;;;;31.38;18.42;;;9.80;99.90;;;;;;4945749;29;20548;-84
2023/11/21 01:48:17;;;;;;;34.60;20.48;;;9.70;99.90;;;;;;4956747;29;20347;-78
2023/11/21 01:50:44;;;;;;;31.17;19.35;;;9.70;99.90;;;;;;4956129;29;20228;-84
2023/11/21 01:53:14;;;;;;;32.03;19.13;;;9.70;99.90;;;;;;4937595;29;20308;-78
2023/11/21 01:55:42;;;;;;;30.08;19.10;;;9.70;99.90;;;;;;4938133;29;20232;-78
2023/11/21 01:58:12;;;;;;;31.95;17.70;;;9.70;99.90;;;;;;4948208;29;20224;-78
2023/11/21 02:00:39;;;;;;;29.67;16.52;;;9.70;99.90;;;;;;4955319;29;20240;-78
2023/11/21 02:03:06;;;;;;;24.67;16.58;;;9.70;99.90;;;;;;4938310;29;20267;-78
2023/11/21 02:05:33;;;;;;;24.63;15.20;;;9.60;99.90;;;;;;4936898;29;20221;-78
2023/11/21 02:08:00;;;;;;;22.95;14.55;;;9.70;99.90;;;;;;4937158;29;20598;-78
2023/11/21 02:10:27;;;;;;;21.17;14.10;;;9.70;99.90;;;;;;4938364;29;20627;-78
2023/11/21 02:12:56;;;;;;;23.27;14.63;;;9.70;99.90;;;;;;4952440;29;20308;-78
2023/11/21 02:15:28;;;;;;;22.48;12.82;;;9.70;99.90;;;;;;4944754;29;20236;-84
2023/11/21 02:17:58;;;;;;;21.02;11.82;;;9.70;99.90;;;;;;4937428;29;20628;-84
2023/11/21 02:20:26;;;;;;;18.63;11.75;;;9.60;99.90;;;;;;4942889;29;20655;-84
2023/11/21 02:22:57;;;;;;;18.05;10.80;;;9.60;99.90;;;;;;4941251;29;20248;-84
2023/11/21 02:25:24;;;;;;;15.73;11.13;;;9.60;99.90;;;;;;4936740;29;20228;-84
2023/11/21 02:27:51;;;;;;;14.02;10.20;;;9.60;99.90;;;;;;4951884;29;20276;-78
2023/11/21 02:30:19;;;;;;;11.40;8.77;;;9.60;99.90;;;;;;4953250;28;20307;-78
2023/11/21 02:32:45;;;;;;;11.48;8.50;;;9.60;99.90;;;;;;4949176;28;20231;-78
2023/11/21 02:35:15;;;;;;;12.15;9.70;;;9.60;99.90;;;;;;4954366;29;20678;-78
2023/11/21 02:37:42;;;;;;;13.52;10.68;;;9.60;99.90;;;;;;4954540;28;20942;-78
2023/11/21 02:40:13;;;;;;;12.18;9.98;;;9.60;99.90;;;;;;4955634;29;20240;-84
2023/11/21 02:42:40;;;;;;;11.95;9.68;;;9.60;99.90;;;;;;4948579;29;20280;-84
2023/11/21 02:45:09;;;;;;;11.07;8.88;;;9.50;99.90;;;;;;4945393;29;20306;-78
2023/11/21 02:47:35;;;;;;;10.45;8.35;;;9.50;99.90;;;;;;4940294;29;20239;-84
2023/11/21 02:50:03;;;;;;;9.73;8.60;;;9.50;99.90;;;;;;4952800;29;20517;-78
2023/11/21 02:52:33;;;;;;;9.80;8.77;;;9.50;99.90;;;;;;4955400;29;20237;-78
2023/11/21 02:54:59;;;;;;;11.25;10.15;;;9.50;99.90;;;;;;4954437;28;20696;-84
2023/11/21 02:57:28;;;;;;;10.32;9.23;;;9.50;99.90;;;;;;4955511;29;20236;-78
2023/11/21 02:59:55;;;;;;;12.75;11.10;;;9.50;99.90;;;;;;4954933;29;20264;-84
2023/11/21 03:02:22;;;;;;;11.00;9.90;;;9.50;99.90;;;;;;4955402;29;20243;-78
2023/11/21 03:04:49;;;;;;;8.93;8.07;;;9.50;99.90;;;;;;4947890;29;20251;-78
2023/11/21 03:07:16;;;;;;;9.35;8.30;;;9.40;99.90;;;;;;4936222;29;20235;-84
2023/11/21 03:09:43;;;;;;;9.40;8.40;;;9.40;99.90;;;;;;4938121;29;20304;-78
2023/11/21 03:12:11;;;;;;;9.23;8.15;;;9.40;99.90;;;;;;4950053;29;20259;-84
2023/11/21 03:14:43;;;;;;;14.57;8.48;;;9.40;99.90;;;;;;4951796;29;20224;-84
2023/11/21 03:17:10;;;;;;;8.73;7.85;;;9.30;99.90;;;;;;4947854;29;20253;-84
2023/11/21 03:19:38;;;;;;;10.60;9.60;;;9.30;99.90;;;;;;4954543;29;20232;-83
2023/11/21 03:22:05;;;;;;;10.77;9.18;;;9.40;99.90;;;;;;4954916;29;20232;-77
2023/11/21 03:24:32;;;;;;;12.50;11.23;;;9.40;99.90;;;;;;4955343;29;20311;-78
2023/11/21 03:26:59;;;;;;;10.23;9.13;;;9.40;99.90;;;;;;4954667;29;20231;-84
2023/11/21 03:29:26;;;;;;;10.50;9.50;;;9.40;99.90;;;;;;4955572;29;20231;-78
2023/11/21 03:31:56;;;;;;;12.25;10.30;;;9.40;99.90;;;;;;4954822;29;20311;-77
2023/11/21 03:34:26;;;;;;;10.55;8.68;;;9.40;99.90;;;;;;4955268;29;20311;-78
2023/11/21 03:36:53;;;;;;;12.15;9.20;;;9.40;99.90;;;;;;4954489;29;20228;-78
2023/11/21 03:39:21;;;;;;;11.05;10.00;;;9.30;99.90;;;;;;4955241;29;20242;-84
2023/11/21 03:41:49;;;;;;;9.40;8.50;;;9.30;99.90;;;;;;4954538;29;20287;-78
2023/11/21 03:44:16;;;;;;;9.25;8.35;;;9.30;99.90;;;;;;4955242;29;20314;-84
2023/11/21 03:46:44;;;;;;;9.98;8.88;;;9.30;99.90;;;;;;4954348;29;20231;-84
2023/11/21 03:49:12;;;;;;;9.07;8.18;;;9.20;99.90;;;;;;4955208;29;20702;-84
2023/11/21 03:51:39;;;;;;;8.63;7.82;;;9.20;99.90;;;;;;4955045;29;20634;-77
2023/11/21 03:54:10;;;;;;;11.38;10.27;;;9.20;99.90;;;;;;4954169;28;20636;-78
2023/11/21 03:56:37;;;;;;;11.77;9.40;;;9.20;99.90;;;;;;4955054;29;20230;-78
2023/11/21 03:59:04;;;;;;;11.77;10.60;;;9.20;99.90;;;;;;4956286;28;20667;-84
2023/11/21 04:01:31;;;;;;;9.20;8.30;;;9.20;99.90;;;;;;4957830;29;20236;-77
2023/11/21 04:03:58;;;;;;;10.55;9.45;;;9.20;99.90;;;;;;4958101;29;20645;-84
2023/11/21 04:06:26;;;;;;;11.75;10.15;;;9.20;99.90;;;;;;4958604;29;20244;-78
2023/11/21 04:08:53;;;;;;;11.32;10.13;;;9.20;99.90;;;;;;4957966;29;20228;-84
2023/11/21 04:11:20;;;;;;;11.00;9.32;;;9.20;99.90;;;;;;4958412;29;20262;-78
2023/11/21 04:13:47;;;;;;;9.55;8.52;;;9.20;99.90;;;;;;4958115;29;20220;-78
2023/11/21 04:16:14;;;;;;;11.90;10.73;;;9.10;99.90;;;;;;4958205;29;20228;-77
2023/11/21 04:18:42;;;;;;;12.68;10.07;;;9.10;99.90;;;;;;4958441;28;20311;-84
2023/11/21 04:21:09;;;;;;;11.30;10.10;;;9.10;99.90;;;;;;4957558;29;20232;-84
2023/11/21 04:23:37;;;;;;;11.35;9.90;;;9.10;99.90;;;;;;4957869;28;20266;-76
2023/11/21 04:26:04;;;;;;;10.48;8.90;;;9.10;99.90;;;;;;4957873;29;20307;-77
2023/11/21 04:28:31;;;;;;;11.65;10.48;;;9.00;99.90;;;;;;4957704;29;20228;-77
2023/11/21 04:30:58;;;;;;;12.40;11.20;;;9.00;99.90;;;;;;4957477;29;20263;-83
2023/11/21 04:33:25;;;;;;;12.48;10.75;;;9.00;99.90;;;;;;4958048;29;20256;-83
2023/11/21 04:35:52;;;;;;;11.27;9.98;;;9.10;99.90;;;;;;4957758;29;20288;-83
2023/11/21 04:38:20;;;;;;;10.73;9.60;;;9.00;99.90;;;;;;4958057;29;20592;-83
2023/11/21 04:40:48;;;;;;;11.93;10.00;;;9.00;99.90;;;;;;4957685;29;20560;-77
2023/11/21 04:43:15;;;;;;;11.48;9.85;;;9.00;99.90;;;;;;4957743;29;20255;-84
2023/11/21 04:45:42;;;;;;;12.90;10.13;;;9.00;99.90;;;;;;4957404;28;20315;-83
2023/11/21 04:48:11;;;;;;;11.18;9.55;;;9.10;99.90;;;;;;4957741;29;20224;-77
2023/11/21 04:50:38;;;;;;;12.90;10.02;;;9.10;99.90;;;;;;4957639;29;20690;-84
2023/11/21 04:53:06;;;;;;;13.13;9.63;;;9.00;99.90;;;;;;4957079;28;20706;-84
2023/11/21 04:55:32;;;;;;;12.07;9.98;;;9.00;99.90;;;;;;4957610;29;20228;-84
2023/11/21 04:58:01;;;;;;;10.27;9.27;;;9.00;99.90;;;;;;4957336;29;20389;-77
2023/11/21 05:00:27;;;;;;;10.70;9.35;;;9.00;99.90;;;;;;4957329;29;20310;-77
2023/11/21 05:02:54;;;;;;;9.90;8.63;;;9.00;99.90;;;;;;4956672;29;20299;-77
2023/11/21 05:05:22;;;;;;;9.55;8.68;;;9.00;99.90;;;;;;4957453;29;20228;-77
2023/11/21 05:07:49;;;;;;;10.25;8.70;;;9.00;99.90;;;;;;4956800;29;20287;-83
2023/11/21 05:10:16;;;;;;;10.93;9.60;;;8.90;99.90;;;;;;4956738;28;20287;-83
2023/11/21 05:12:43;;;;;;;8.93;7.68;;;8.90;99.90;;;;;;4957247;29;20311;-77
2023/11/21 05:15:16;;;;;;;11.40;9.13;;;8.90;99.90;;;;;;4956651;29;20280;-84
2023/11/21 05:17:43;;;;;;;12.05;9.02;;;8.90;99.90;;;;;;4957312;29;20254;-83
2023/11/21 05:20:12;;;;;;;9.70;8.75;;;8.90;99.90;;;;;;4956630;29;20262;-77
2023/11/21 05:22:40;;;;;;;9.70;8.70;;;9.00;99.90;;;;;;4957213;29;20298;-77
2023/11/21 05:25:08;;;;;;;9.20;8.35;;;9.00;99.90;;;;;;4956728;29;20625;-84
2023/11/21 05:27:35;;;;;;;11.05;9.55;;;9.00;99.90;;;;;;4957198;29;20224;-77
2023/11/21 05:30:05;;;;;;;12.35;9.75;;;9.00;99.90;;;;;;4956511;29;20357;-77
2023/11/21 05:32:33;;;;;;;10.38;8.05;;;8.90;99.90;;;;;;4957042;29;20228;-77
2023/11/21 05:35:00;;;;;;;9.27;8.38;;;8.90;99.90;;;;;;4955824;29;20352;-83
2023/11/21 05:37:27;;;;;;;10.13;9.10;;;8.90;99.90;;;;;;4956949;29;20232;-77
2023/11/21 05:39:56;;;;;;;9.27;8.30;;;8.90;99.90;;;;;;4956405;29;20258;-77
2023/11/21 05:42:23;;;;;;;10.48;9.00;;;8.80;99.90;;;;;;4956818;29;20284;-84
2023/11/21 05:44:50;;;;;;;9.40;8.48;;;8.80;99.90;;;;;;4956938;29;20304;-78
2023/11/21 05:47:17;;;;;;;10.55;9.45;;;8.80;99.90;;;;;;4956089;29;20243;-78
2023/11/21 05:49:50;;;;;;;9.07;8.18;;;8.80;99.90;;;;;;4956614;29;20228;-78
2023/11/21 05:52:17;;;;;;;10.75;7.60;;;8.80;99.90;;;;;;4955768;29;20239;-78
2023/11/21 05:54:43;;;;;;;12.00;7.78;;;8.70;99.90;;;;;;4945309;29;20275;-78
2023/11/21 05:57:11;;;;;;;7.82;6.57;;;8.70;99.90;;;;;;4955805;29;20271;-78
2023/11/21 05:59:38;;;;;;;9.07;7.75;;;8.70;99.90;;;;;;4956443;29;20220;-78
2023/11/21 06:02:05;;;;;;;8.98;8.07;;;8.70;99.90;;;;;;4955751;29;20228;-78
2023/11/21 06:04:32;;;;;;;7.82;6.65;;;8.70;99.90;;;;;;4956251;29;20247;-79
2023/11/21 06:07:01;;;;;;;7.78;7.07;;;8.70;99.90;;;;;;4956305;29;20224;-79
2023/11/21 06:09:28;;;;;;;8.35;7.30;;;8.70;99.90;;;;;;4955654;29;20228;-79
2023/11/21 06:11:55;;;;;;;7.90;7.10;;;8.70;99.90;;;;;;4956325;29;20231;-79
2023/11/21 06:14:22;;;;;;;9.55;8.63;;;8.60;99.90;;;;;;4955347;29;20224;-78
2023/11/21 06:16:50;;;;;;;8.43;7.50;;;8.60;99.90;;;;;;4945801;29;20682;-78
2023/11/21 06:19:19;;;;;;;9.75;8.88;;;8.60;99.90;;;;;;4950034;28;20223;-79
2023/11/21 06:21:47;;;;;;;9.02;8.20;;;8.60;99.90;;;;;;4954588;28;20239;-78
2023/11/21 06:24:16;;;;;;;8.60;7.80;;;8.60;99.90;;;;;;4955120;29;20235;-78
2023/11/21 06:26:44;;;;;;;9.35;8.45;;;8.50;99.90;;;;;;4955738;29;20296;-77
2023/11/21 06:29:12;;;;;;;9.18;8.27;;;8.60;99.90;;;;;;4956028;29;20232;-77
2023/11/21 06:31:40;;;;;;;9.10;8.30;;;8.50;99.90;;;;;;4955450;29;20235;-85
2023/11/21 06:34:09;;;;;;;7.97;7.18;;;8.50;99.90;;;;;;4956154;29;20224;-84
2023/11/21 06:36:36;;;;;;;9.20;6.35;;;8.50;99.90;;;;;;4955433;28;20220;-85
2023/11/21 06:39:06;;;;;;;6.65;5.95;;;8.60;99.90;;;;;;4956544;29;20287;-85
2023/11/21 06:41:34;;;;;;;6.22;5.63;;;8.50;99.90;;;;;;4955475;29;20605;-84
2023/11/21 06:44:02;;;;;;;7.95;5.63;;;8.50;99.90;;;;;;4956349;29;20303;-84
2023/11/21 06:46:29;;;;;;;6.85;6.10;;;8.50;99.90;;;;;;4955901;29;20315;-84
2023/11/21 06:48:56;;;;;;;8.15;6.35;;;8.50;99.90;;;;;;4955819;29;20306;-84
2023/11/21 06:51:23;;;;;;;6.47;5.93;;;8.60;99.90;;;;;;4956101;29;20746;-84
2023/11/21 06:53:50;;;;;;;7.28;6.15;;;8.50;99.90;;;;;;4955862;29;20583;-83
2023/11/21 06:56:18;;;;;;;6.18;5.63;;;8.50;99.90;;;;;;4955282;29;20616;-83
2023/11/21 06:58:47;;;;;;;6.18;5.65;;;8.50;99.90;;;;;;4956070;29;20307;-83
2023/11/21 07:01:15;;;;;;;5.20;4.75;;;8.50;99.90;;;;;;4955328;29;20301;-83
2023/11/21 07:03:42;;;;;;;6.03;5.50;;;8.60;99.90;;;;;;4955214;29;20227;-83
2023/11/21 07:06:10;;;;;;;6.25;5.20;;;8.50;99.90;;;;;;4956005;29;20332;-77
2023/11/21 07:08:38;;;;;;;6.70;6.10;;;8.60;99.90;;;;;;4955081;29;20238;-80
2023/11/21 07:11:05;;;;;;;6.78;6.18;;;8.60;99.90;;;;;;4955543;29;20758;-77
2023/11/21 07:13:32;;;;;;;6.10;5.55;;;8.50;99.90;;;;;;4954760;29;20563;-84
2023/11/21 07:16:00;;;;;;;7.20;6.18;;;8.50;99.90;;;;;;4955175;29;20599;-84
2023/11/21 07:18:35;;;;;;;6.40;5.82;;;8.50;99.90;;;;;;4954194;28;20248;-78
2023/11/21 07:21:02;;;;;;;7.03;6.40;;;8.50;99.90;;;;;;4955602;29;20223;-77
2023/11/21 07:23:30;;;;;;;8.18;7.45;;;8.60;99.90;;;;;;4944175;29;20236;-77
2023/11/21 07:26:03;;;;;;;8.63;7.72;;;8.60;99.90;;;;;;4955655;29;20220;-77
2023/11/21 07:28:31;;;;;;;6.53;5.90;;;8.60;99.90;;;;;;4954840;29;20228;-83
2023/11/21 07:30:59;;;;;;;8.15;7.35;;;8.60;99.90;;;;;;4944592;29;20224;-77
2023/11/21 07:33:27;;;;;;;7.18;6.35;;;8.60;99.90;;;;;;4954831;28;20235;-78
2023/11/21 07:35:54;;;;;;;6.47;5.88;;;8.60;99.90;;;;;;4959047;29;20287;-78
2023/11/21 07:38:21;;;;;;;7.50;6.90;;;8.60;99.90;;;;;;4959215;29;20274;-78
2023/11/21 07:40:48;;;;;;;7.10;6.40;;;8.60;99.90;;;;;;4958301;29;20303;-79
2023/11/21 07:43:15;;;;;;;7.75;7.05;;;8.60;99.90;;;;;;4958368;29;20326;-78
2023/11/21 07:45:43;;;;;;;7.22;6.55;;;8.60;99.90;;;;;;4958609;29;20228;-78
2023/11/21 07:48:10;;;;;;;7.55;6.80;;;8.60;99.90;;;;;;4958911;29;20232;-78
2023/11/21 07:50:39;;;;;;;8.48;7.57;;;8.60;99.90;;;;;;4958087;29;20228;-78
2023/11/21 07:53:09;;;;;;;8.55;6.72;;;8.60;99.90;;;;;;4958830;29;20236;-77
2023/11/21 07:58:58;;;;;;;7.32;6.57;;;8.60;99.90;;;;;;4957607;29;20231;-84
2023/11/21 08:01:27;;;;;;;7.03;6.32;;;8.60;99.90;;;;;;4957871;29;20232;-83
2023/11/21 08:03:56;;;;;;;7.38;5.95;;;8.60;99.90;;;;;;4958823;29;20275;-84
2023/11/21 08:06:25;;;;;;;6.93;6.22;;;8.60;99.90;;;;;;4957915;29;20696;-84
2023/11/21 08:08:52;;;;;;;4.68;4.25;;;8.60;99.90;;;;;;4958762;29;20303;-86
2023/11/21 08:11:22;;;;;;;6.13;5.53;;;8.50;99.90;;;;;;4957661;29;20874;-79
2023/11/21 08:13:49;;;;;;;7.10;5.85;;;8.50;99.90;;;;;;4958827;29;20611;-85
2023/11/21 08:16:18;;;;;;;5.97;5.22;;;8.50;99.90;;;;;;4958501;29;20228;-84
2023/11/21 08:18:45;;;;;;;6.70;5.72;;;8.50;99.90;;;;;;4958576;29;20251;-85
2023/11/21 08:21:13;;;;;;;6.50;5.90;;;8.50;99.90;;;;;;4956865;28;20258;-83
2023/11/21 08:23:42;;;;;;;29.13;18.77;;;8.50;99.90;;;;;;4957761;29;20242;-85
2023/11/21 08:26:08;;;;;;;10.13;9.13;;;8.50;99.90;;;;;;4958363;29;20307;-84
2023/11/21 08:28:35;;;;;;;9.90;8.88;;;8.60;99.90;;;;;;4958005;29;20702;-78
2023/11/21 08:31:02;;;;;;;19.13;13.40;;;8.50;99.90;;;;;;4958157;29;20228;-78
2023/11/21 08:33:29;;;;;;;9.32;6.32;;;8.50;99.90;;;;;;4957518;29;20235;-78
2023/11/21 08:35:56;;;;;;;5.45;5.05;;;8.50;99.90;;;;;;4957030;29;20228;-78
2023/11/21 08:38:24;;;;;;;5.90;5.40;;;8.50;99.90;;;;;;4957637;29;20243;-78
2023/11/21 08:41:23;;;;;;;5.90;5.18;;;8.50;99.90;;;;;;4957977;29;20750;-78
2023/11/21 08:43:51;;;;;;;6.93;5.45;;;8.50;99.90;;;;;;4957725;29;20252;-78
2023/11/21 08:46:19;;;;;;;6.53;5.40;;;8.50;99.90;;;;;;4957264;28;20239;-78
2023/11/21 08:48:46;;;;;;;6.20;5.50;;;8.50;99.90;;;;;;4956924;29;20331;-78
2023/11/21 08:51:14;;;;;;;5.65;5.07;;;8.50;99.90;;;;;;4957820;29;20228;-78
2023/11/21 08:53:41;;;;;;;5.32;4.40;;;8.50;99.90;;;;;;4956492;29;20251;-78
2023/11/21 08:56:10;;;;;;;6.13;5.25;;;8.50;99.90;;;;;;4957818;29;20224;-78
2023/11/21 08:58:38;;;;;;;5.85;4.85;;;8.50;99.90;;;;;;4957272;29;20232;-78
2023/11/21 09:01:07;;;;;;;5.65;4.97;;;8.50;99.90;;;;;;4957527;29;20311;-78
2023/11/21 09:03:34;;;;;;;6.60;5.55;;;8.50;99.90;;;;;;4956917;29;20599;-78
2023/11/21 09:06:02;;;;;;;5.90;5.13;;;8.50;99.90;;;;;;4957708;29;20573;-78
2023/11/21 09:08:30;;;;;;;8.48;5.72;;;8.50;99.90;;;;;;4957191;29;20311;-79
2023/11/21 09:10:57;;;;;;;4.90;4.05;;;8.50;99.90;;;;;;4957584;28;20247;-78
2023/11/21 09:13:25;;;;;;;7.68;5.55;;;8.50;99.90;;;;;;4957467;29;20228;-78
2023/11/21 09:15:53;;;;;;;7.82;5.53;;;8.50;99.90;;;;;;4957043;29;20247;-79
2023/11/21 09:18:20;;;;;;;8.27;5.93;;;8.50;99.90;;;;;;4957372;29;20263;-78
2023/11/21 09:20:47;;;;;;;6.05;5.45;;;8.50;99.90;;;;;;4956970;29;20697;-78
2023/11/21 09:23:13;;;;;;;11.02;5.93;;;8.50;99.90;;;;;;4956891;28;20224;-78
2023/11/21 09:25:40;;;;;;;7.90;6.40;;;8.50;99.90;;;;;;4957129;29;20228;-84
2023/11/21 09:28:08;;;;;;;10.25;5.90;;;8.50;99.90;;;;;;4957165;29;20312;-78
2023/11/21 09:30:35;;;;;;;11.10;6.47;;;8.50;99.90;;;;;;4956434;29;20235;-78
2023/11/21 09:33:07;;;;;;;8.10;6.00;;;8.50;99.90;;;;;;4956929;29;20235;-78
2023/11/21 09:35:34;;;;;;;11.27;6.85;;;8.40;99.90;;;;;;4956718;29;20224;-79
2023/11/21 09:38:05;;;;;;;11.55;7.10;;;8.40;99.90;;;;;;4956487;29;20677;-78
2023/11/21 09:40:32;;;;;;;9.38;6.78;;;8.30;99.90;;;;;;4956875;29;20235;-78
2023/11/21 09:43:00;;;;;;;13.60;7.85;;;8.30;99.90;;;;;;4957175;29;20231;-78
2023/11/21 09:45:28;;;;;;;13.05;9.32;;;8.30;99.90;;;;;;4956567;29;20315;-78
2023/11/21 09:47:56;;;;;;;13.85;7.53;;;8.30;99.90;;;;;;4956267;28;20235;-78
2023/11/21 09:50:26;;;;;;;11.40;7.30;;;8.30;99.90;;;;;;4956795;29;20239;-78
2023/11/21 09:53:00;;;;;;;10.68;7.13;;;8.40;99.90;;;;;;4955905;29;20228;-78
2023/11/21 09:55:29;;;;;;;15.20;8.68;;;8.40;99.90;;;;;;4956890;29;20223;-85
2023/11/21 09:58:00;;;;;;;10.73;6.70;;;8.40;99.90;;;;;;4956262;28;20283;-84
2023/11/21 10:00:28;;;;;;;12.00;7.32;;;8.30;99.90;;;;;;4956505;29;20725;-78
2023/11/21 10:02:57;;;;;;;9.65;7.20;;;8.30;99.90;;;;;;4956128;29;20666;-84
2023/11/21 10:05:25;;;;;;;10.48;6.82;;;8.30;99.90;;;;;;4956774;29;20248;-78
2023/11/21 10:07:53;;;;;;;9.48;7.55;;;8.40;99.90;;;;;;4955365;29;20250;-78
2023/11/21 10:10:23;;;;;;;10.13;7.32;;;8.40;99.90;;;;;;4958991;29;20227;-83
2023/11/21 10:12:53;;;;;;;13.02;7.65;;;8.30;99.90;;;;;;4956458;29;20670;-78
2023/11/21 10:15:22;;;;;;;11.10;6.97;;;8.40;99.90;;;;;;4946345;29;20228;-78
2023/11/21 10:17:53;;;;;;;11.82;7.68;;;8.40;99.90;;;;;;4954966;29;20311;-78
2023/11/21 10:20:21;;;;;;;12.30;7.25;;;8.40;99.90;;;;;;4955909;29;20291;-78
2023/11/21 10:22:50;;;;;;;11.50;6.50;;;8.40;99.90;;;;;;4955217;29;20291;-78
2023/11/21 10:25:20;;;;;;;13.57;8.40;;;8.30;99.90;;;;;;4956102;29;20303;-77
2023/11/21 10:27:51;;;;;;;8.95;6.15;;;8.30;99.90;;;;;;4955296;29;20232;-77
2023/11/21 10:30:18;;;;;;;9.85;6.03;;;8.30;99.90;;;;;;4955874;29;20232;-77
2023/11/21 10:32:46;;;;;;;8.93;6.40;;;8.30;99.90;;;;;;4954910;29;20255;-78
2023/11/21 10:35:16;;;;;;;9.27;5.75;;;8.20;99.90;;;;;;4955933;28;20302;-77
2023/11/21 10:37:45;;;;;;;6.13;4.60;;;8.30;99.90;;;;;;4955330;29;20235;-76
2023/11/21 10:40:13;;;;;;;6.55;4.82;;;8.20;99.90;;;;;;4956001;29;20224;-76
2023/11/21 10:42:41;;;;;;;6.72;5.50;;;8.20;99.90;;;;;;4955191;29;20236;-79
2023/11/21 10:45:13;;;;;;;7.50;5.35;;;8.20;99.90;;;;;;4955799;29;20230;-77
2023/11/21 10:47:40;;;;;;;6.45;5.85;;;8.20;99.90;;;;;;4955593;29;20580;-77
2023/11/21 10:50:11;;;;;;;5.60;5.00;;;8.20;99.90;;;;;;4955538;29;20258;-77
2023/11/21 10:52:39;;;;;;;4.70;4.13;;;8.20;99.90;;;;;;4955736;29;20234;-78
2023/11/21 10:55:21;;;;;;;5.85;4.60;;;8.20;99.90;;;;;;4955010;29;20307;-79
2023/11/21 10:57:52;;;;;;;7.10;6.40;;;8.20;99.90;;;;;;4955136;29;20227;-85
2023/11/21 11:00:31;;;;;;;6.07;5.10;;;8.10;99.90;;;;;;4955685;29;20246;-79
2023/11/21 11:02:59;;;;;;;6.18;5.15;;;8.10;99.90;;;;;;4954889;29;20566;-77
2023/11/21 11:05:28;;;;;;;4.13;3.83;;;8.10;99.90;;;;;;4955505;29;20262;-78
2023/11/21 11:08:01;;;;;;;5.28;4.30;;;8.10;99.90;;;;;;4954623;29;20546;-77
2023/11/21 11:10:30;;;;;;;4.70;4.25;;;8.10;99.90;;;;;;4954409;29;20271;-76
2023/11/21 11:12:58;;;;;;;5.35;4.85;;;8.10;99.90;;;;;;4955764;29;20613;-77
2023/11/21 11:15:25;;;;;;;4.80;4.38;;;8.10;99.90;;;;;;4947031;29;20678;-79
2023/11/21 11:17:56;;;;;;;4.70;4.30;;;8.10;99.90;;;;;;4955460;29;20693;-77
2023/11/21 11:20:25;;;;;;;4.70;4.25;;;8.00;99.90;;;;;;4955331;29;20306;-77
2023/11/21 11:23:06;;;;;;;6.45;4.85;;;8.00;99.90;;;;;;4935808;29;20259;-77
2023/11/21 11:25:54;;;;;;;10.18;5.10;;;8.00;99.90;;;;;;4952619;29;20547;-77
2023/11/21 11:28:28;;;;;;;6.82;4.50;;;7.90;99.90;;;;;;4955095;29;20232;-77
2023/11/21 11:31:05;;;;;;;4.07;3.67;;;8.00;99.90;;;;;;4954984;29;20239;-77
2023/11/21 11:33:39;;;;;;;4.45;4.03;;;7.90;99.90;;;;;;4955024;29;20318;-77
2023/11/21 11:36:11;;;;;;;4.60;3.63;;;7.90;99.90;;;;;;4955204;29;20610;-78
2023/11/21 11:38:38;;;;;;;3.95;3.28;;;7.80;99.90;;;;;;4954867;29;20248;-78
2023/11/21 11:41:10;;;;;;;3.90;3.17;;;7.90;99.90;;;;;;4955415;29;20258;-78
2023/11/21 11:43:43;;;;;;;4.00;3.70;;;7.80;99.90;;;;;;4954830;29;20578;-83
2023/11/21 11:46:13;;;;;;;4.13;3.45;;;7.80;99.90;;;;;;4955492;29;20224;-77
2023/11/21 11:48:40;;;;;;;4.18;3.78;;;7.80;99.90;;;;;;4954679;29;20239;-78
2023/11/21 11:51:14;;;;;;;4.38;3.95;;;7.80;99.90;;;;;;4955054;29;20706;-79
2023/11/21 11:53:42;;;;;;;3.83;3.47;;;7.80;99.90;;;;;;4954756;28;20239;-78
2023/11/21 11:56:28;;;;;;;5.10;3.58;;;7.80;99.90;;;;;;4955419;29;20224;-78
2023/11/21 11:58:57;;;;;;;3.55;3.03;;;7.70;99.90;;;;;;4955048;29;20220;-78
2023/11/21 12:01:26;;;;;;;4.72;3.08;;;7.80;99.90;;;;;;4955147;29;20291;-78
2023/11/21 12:04:30;;;;;;;4.35;3.95;;;7.80;99.90;;;;;;4954572;29;20364;-78
2023/11/21 12:07:00;;;;;;;4.07;3.70;;;7.80;99.90;;;;;;4950853;29;20283;-78
2023/11/21 12:09:27;;;;;;;4.07;3.63;;;7.80;99.90;;;;;;4939328;29;20224;-78
2023/11/21 12:11:57;;;;;;;4.20;3.80;;;7.80;99.90;;;;;;4954480;29;20236;-78
2023/11/21 12:14:25;;;;;;;4.15;3.78;;;7.80;99.90;;;;;;4954821;29;20224;-78
2023/11/21 12:16:52;;;;;;;4.82;4.40;;;7.80;99.90;;;;;;4954710;29;20282;-77
2023/11/21 12:19:22;;;;;;;5.78;5.22;;;7.90;99.90;;;;;;4955040;28;20247;-78
2023/11/21 12:21:50;;;;;;;4.60;4.20;;;7.80;99.90;;;;;;4957061;29;20232;-78
2023/11/21 12:24:17;;;;;;;4.65;4.20;;;7.70;99.90;;;;;;4958305;29;20232;-78
2023/11/21 12:26:45;;;;;;;4.32;3.85;;;7.80;99.90;;;;;;4957934;29;20228;-78
2023/11/21 12:29:13;;;;;;;3.45;3.15;;;7.80;99.90;;;;;;4958265;29;20224;-77
2023/11/21 12:31:43;;;;;;;5.07;4.65;;;7.80;99.90;;;;;;4957474;29;20259;-78
2023/11/21 12:34:11;;;;;;;4.35;3.95;;;7.70;99.90;;;;;;4958353;29;20303;-84
2023/11/21 12:36:38;;;;;;;4.25;3.95;;;7.70;99.90;;;;;;4957853;29;20603;-79
2023/11/21 12:39:08;;;;;;;3.90;3.50;;;7.60;99.90;;;;;;4948836;29;20246;-77
2023/11/21 12:41:35;;;;;;;4.60;4.20;;;7.60;99.90;;;;;;4958007;29;20575;-77
2023/11/21 12:44:03;;;;;;;4.70;4.30;;;7.50;99.90;;;;;;4958070;29;20256;-83
2023/11/21 12:46:33;;;;;;;4.30;3.90;;;7.60;99.90;;;;;;4958001;29;20231;-85
2023/11/21 12:49:01;;;;;;;4.40;4.00;;;7.50;99.90;;;;;;4949471;29;20228;-78
2023/11/21 12:51:30;;;;;;;4.72;4.38;;;7.60;99.90;;;;;;4957884;29;20311;-78
2023/11/21 12:53:58;;;;;;;4.00;3.70;;;7.60;99.90;;;;;;4956902;28;20232;-85
2023/11/21 12:56:25;;;;;;;4.32;4.00;;;7.70;99.90;;;;;;4957986;28;20294;-85
2023/11/21 12:58:56;;;;;;;4.88;4.03;;;7.70;99.90;;;;;;4956910;29;20228;-86